sensor_id;sensor_type;location;lat;lon;timestamp;pressure;altitude;pressure_sealevel;temperature;humidity
41040;BME280;48586;50.122;18.972;2022-09-20T00:02:57;98397.16;;;10.74;84.75
41040;BME280;48586;50.122;18.972;2022-09-20T00:06:00;98398.78;;;10.75;84.75
41040;BME280;48586;50.122;18.972;2022-09-20T00:09:03;98396.13;;;10.75;84.80
41040;BME280;48586;50.122;18.972;2022-09-20T00:12:06;98399.41;;;10.77;84.69
41040;BME280;48586;50.122;18.972;2022-09-20T00:15:10;98396.31;;;10.80;84.56
41040;BME280;48586;50.122;18.972;2022-09-20T00:18:12;98401.03;;;10.78;84.49
41040;BME280;48586;50.122;18.972;2022-09-20T00:21:15;98396.31;;;10.80;84.34
41040;BME280;48586;50.122;18.972;2022-09-20T00:24:18;98395.50;;;10.80;84.26
41040;BME280;48586;50.122;18.972;2022-09-20T00:27:19;98398.38;;;10.78;84.22
41040;BME280;48586;50.122;18.972;2022-09-20T00:30:23;98398.16;;;10.80;84.13
41040;BME280;48586;50.122;18.972;2022-09-20T00:33:25;98401.59;;;10.80;84.10
41040;BME280;48586;50.122;18.972;2022-09-20T00:36:47;98396.69;;;10.84;84.10
41040;BME280;48586;50.122;18.972;2022-09-20T00:39:48;98408.56;;;10.81;83.89
41040;BME280;48586;50.122;18.972;2022-09-20T00:42:51;98400.59;;;10.81;83.99
41040;BME280;48586;50.122;18.972;2022-09-20T00:45:54;98401.59;;;10.80;83.93
41040;BME280;48586;50.122;18.972;2022-09-20T00:49:00;98401.25;;;10.77;84.05
41040;BME280;48586;50.122;18.972;2022-09-20T00:52:05;98401.25;;;10.77;84.20
41040;BME280;48586;50.122;18.972;2022-09-20T00:55:07;98403.06;;;10.76;84.16
41040;BME280;48586;50.122;18.972;2022-09-20T00:58:10;98401.44;;;10.75;84.13
41040;BME280;48586;50.122;18.972;2022-09-20T01:01:14;98404.09;;;10.75;84.33
41040;BME280;48586;50.122;18.972;2022-09-20T01:04:18;98399.81;;;10.74;84.41
41040;BME280;48586;50.122;18.972;2022-09-20T01:07:22;98402.91;;;10.71;84.59
41040;BME280;48586;50.122;18.972;2022-09-20T01:10:25;98408.59;;;10.75;84.66
41040;BME280;48586;50.122;18.972;2022-09-20T01:13:27;98404.09;;;10.75;84.37
41040;BME280;48586;50.122;18.972;2022-09-20T01:16:31;98406.97;;;10.74;84.33
41040;BME280;48586;50.122;18.972;2022-09-20T01:19:38;98393.75;;;10.67;84.66
41040;BME280;48586;50.122;18.972;2022-09-20T01:23:00;98406.34;;;10.72;84.51
41040;BME280;48586;50.122;18.972;2022-09-20T01:26:22;98400.47;;;10.69;84.34
41040;BME280;48586;50.122;18.972;2022-09-20T01:29:48;98402.69;;;10.73;84.27
41040;BME280;48586;50.122;18.972;2022-09-20T01:33:06;98406.97;;;10.74;84.41
41040;BME280;48586;50.122;18.972;2022-09-20T01:36:13;98409.84;;;10.72;84.20
41040;BME280;48586;50.122;18.972;2022-09-20T01:39:25;98414.91;;;10.74;84.21
41040;BME280;48586;50.122;18.972;2022-09-20T01:42:32;98407.19;;;10.72;84.09
41040;BME280;48586;50.122;18.972;2022-09-20T01:45:43;98412.25;;;10.74;84.20
41040;BME280;48586;50.122;18.972;2022-09-20T01:48:47;98412.50;;;10.72;83.83
41040;BME280;48586;50.122;18.972;2022-09-20T01:55:49;98412.53;;;10.65;83.95
41040;BME280;48586;50.122;18.972;2022-09-20T01:59:24;98409.66;;;10.67;84.04
41040;BME280;48586;50.122;18.972;2022-09-20T02:06:33;98404.75;;;10.64;83.79
41040;BME280;48586;50.122;18.972;2022-09-20T02:10:03;98399.66;;;10.62;84.13
41040;BME280;48586;50.122;18.972;2022-09-20T02:13:10;98397.44;;;10.66;84.12
41040;BME280;48586;50.122;18.972;2022-09-20T02:16:35;98405.53;;;10.71;83.94
41040;BME280;48586;50.122;18.972;2022-09-20T02:20:09;98406.16;;;10.73;83.76
41040;BME280;48586;50.122;18.972;2022-09-20T02:23:25;98403.94;;;10.70;83.85
41040;BME280;48586;50.122;18.972;2022-09-20T02:26:39;98408.84;;;10.66;83.94
41040;BME280;48586;50.122;18.972;2022-09-20T02:29:47;98407.41;;;10.64;83.93
41040;BME280;48586;50.122;18.972;2022-09-20T02:33:08;98416.59;;;10.61;84.04
41040;BME280;48586;50.122;18.972;2022-09-20T02:36:25;98422.13;;;10.60;84.21
41040;BME280;48586;50.122;18.972;2022-09-20T02:39:34;98417.22;;;10.57;84.35
41040;BME280;48586;50.122;18.972;2022-09-20T02:42:43;98407.44;;;10.57;84.28
41040;BME280;48586;50.122;18.972;2022-09-20T02:45:52;98418.44;;;10.61;84.20
41040;BME280;48586;50.122;18.972;2022-09-20T02:49:03;98419.44;;;10.66;84.60
41040;BME280;48586;50.122;18.972;2022-09-20T02:52:15;98425.09;;;10.77;84.03
41040;BME280;48586;50.122;18.972;2022-09-20T02:55:30;98422.66;;;10.75;83.92
41040;BME280;48586;50.122;18.972;2022-09-20T02:58:43;98421.63;;;10.76;83.86
41040;BME280;48586;50.122;18.972;2022-09-20T03:01:53;98424.91;;;10.72;83.77
41040;BME280;48586;50.122;18.972;2022-09-20T03:05:06;98424.50;;;10.75;83.74
41040;BME280;48586;50.122;18.972;2022-09-20T03:08:23;98428.97;;;10.74;83.89
41040;BME280;48586;50.122;18.972;2022-09-20T03:11:33;98436.53;;;10.70;83.68
41040;BME280;48586;50.122;18.972;2022-09-20T03:14:44;98434.94;;;10.69;83.89
41040;BME280;48586;50.122;18.972;2022-09-20T03:17:51;98435.16;;;10.68;83.84
41040;BME280;48586;50.122;18.972;2022-09-20T03:21:08;98436.56;;;10.64;83.91
41040;BME280;48586;50.122;18.972;2022-09-20T03:24:19;98439.22;;;10.64;83.99
41040;BME280;48586;50.122;18.972;2022-09-20T03:27:30;98441.69;;;10.65;83.91
41040;BME280;48586;50.122;18.972;2022-09-20T03:30:43;98443.69;;;10.70;84.02
41040;BME280;48586;50.122;18.972;2022-09-20T03:33:57;98439.59;;;10.74;83.82
41040;BME280;48586;50.122;18.972;2022-09-20T03:37:19;98442.41;;;10.79;83.43
41040;BME280;48586;50.122;18.972;2022-09-20T03:40:38;98451.81;;;10.75;83.17
41040;BME280;48586;50.122;18.972;2022-09-20T03:44:01;98445.31;;;10.71;82.85
41040;BME280;48586;50.122;18.972;2022-09-20T03:47:16;98453.09;;;10.66;83.13
41040;BME280;48586;50.122;18.972;2022-09-20T03:50:40;98454.06;;;10.72;83.29
41040;BME280;48586;50.122;18.972;2022-09-20T03:53:58;98450.19;;;10.74;83.07
41040;BME280;48586;50.122;18.972;2022-09-20T03:57:19;98458.72;;;10.76;82.87
41040;BME280;48586;50.122;18.972;2022-09-20T04:00:38;98455.66;;;10.79;82.72
41040;BME280;48586;50.122;18.972;2022-09-20T04:03:52;98458.53;;;10.78;82.71
41040;BME280;48586;50.122;18.972;2022-09-20T04:07:04;98456.69;;;10.78;82.59
41040;BME280;48586;50.122;18.972;2022-09-20T04:10:37;98466.25;;;10.79;82.52
41040;BME280;48586;50.122;18.972;2022-09-20T04:13:47;98466.25;;;10.79;82.89
41040;BME280;48586;50.122;18.972;2022-09-20T04:16:54;98458.31;;;10.79;82.77
41040;BME280;48586;50.122;18.972;2022-09-20T04:20:02;98467.06;;;10.80;82.62
41040;BME280;48586;50.122;18.972;2022-09-20T04:23:14;98468.50;;;10.82;82.56
41040;BME280;48586;50.122;18.972;2022-09-20T04:26:24;98469.91;;;10.85;82.73
41040;BME280;48586;50.122;18.972;2022-09-20T04:29:33;98468.66;;;10.87;82.53
41040;BME280;48586;50.122;18.972;2022-09-20T04:32:41;98469.28;;;10.83;82.55
41040;BME280;48586;50.122;18.972;2022-09-20T04:35:46;98481.97;;;10.81;82.36
41040;BME280;48586;50.122;18.972;2022-09-20T04:39:15;98480.13;;;10.81;82.48
41040;BME280;48586;50.122;18.972;2022-09-20T04:43:16;98476.66;;;10.81;81.91
41040;BME280;48586;50.122;18.972;2022-09-20T04:46:54;98482.38;;;10.78;82.68
41040;BME280;48586;50.122;18.972;2022-09-20T04:50:22;98489.09;;;10.80;82.32
41040;BME280;48586;50.122;18.972;2022-09-20T04:54:01;98479.31;;;10.81;82.25
41040;BME280;48586;50.122;18.972;2022-09-20T04:57:26;98486.00;;;10.83;82.41
41040;BME280;48586;50.122;18.972;2022-09-20T05:00:45;98490.91;;;10.86;82.64
41040;BME280;48586;50.122;18.972;2022-09-20T05:04:19;98482.94;;;10.86;82.18
41040;BME280;48586;50.122;18.972;2022-09-20T05:11:56;98496.03;;;10.81;82.14
41040;BME280;48586;50.122;18.972;2022-09-20T05:15:10;98500.53;;;10.81;82.40
41040;BME280;48586;50.122;18.972;2022-09-20T05:18:40;98499.88;;;10.85;82.45
41040;BME280;48586;50.122;18.972;2022-09-20T05:21:51;98503.19;;;10.81;82.36
41040;BME280;48586;50.122;18.972;2022-09-20T05:25:10;98507.63;;;10.80;82.25
41040;BME280;48586;50.122;18.972;2022-09-20T05:28:24;98504.81;;;10.75;82.11
41040;BME280;48586;50.122;18.972;2022-09-20T05:31:34;98512.19;;;10.73;81.99
41040;BME280;48586;50.122;18.972;2022-09-20T05:34:44;98509.53;;;10.73;82.01
41040;BME280;48586;50.122;18.972;2022-09-20T05:38:01;98509.47;;;10.80;82.06
41040;BME280;48586;50.122;18.972;2022-09-20T05:41:11;98512.53;;;10.83;82.02
41040;BME280;48586;50.122;18.972;2022-09-20T05:44:25;98515.34;;;10.88;81.84
41040;BME280;48586;50.122;18.972;2022-09-20T05:47:33;98513.13;;;10.85;81.13
41040;BME280;48586;50.122;18.972;2022-09-20T05:50:45;98509.69;;;10.85;81.50
41040;BME280;48586;50.122;18.972;2022-09-20T05:54:24;98513.72;;;10.87;80.82
41040;BME280;48586;50.122;18.972;2022-09-20T05:57:49;98513.56;;;10.82;81.17
41040;BME280;48586;50.122;18.972;2022-09-20T06:00:58;98516.63;;;10.79;80.86
41040;BME280;48586;50.122;18.972;2022-09-20T06:04:11;98519.09;;;10.81;80.98
41040;BME280;48586;50.122;18.972;2022-09-20T06:07:27;98523.13;;;10.83;81.03
41040;BME280;48586;50.122;18.972;2022-09-20T06:10:53;98526.75;;;10.89;80.96
41040;BME280;48586;50.122;18.972;2022-09-20T06:14:08;98523.50;;;10.93;80.88
41040;BME280;48586;50.122;18.972;2022-09-20T06:17:24;98526.31;;;10.99;80.74
41040;BME280;48586;50.122;18.972;2022-09-20T06:20:30;98529.94;;;11.04;80.50
41040;BME280;48586;50.122;18.972;2022-09-20T06:23:35;98533.75;;;11.15;80.51
41040;BME280;48586;50.122;18.972;2022-09-20T06:26:39;98534.34;;;11.17;79.88
41040;BME280;48586;50.122;18.972;2022-09-20T06:29:49;98527.59;;;11.21;79.86
41040;BME280;48586;50.122;18.972;2022-09-20T06:32:54;98528.19;;;11.23;79.92
41040;BME280;48586;50.122;18.972;2022-09-20T06:36:00;98537.72;;;11.31;79.66
41040;BME280;48586;50.122;18.972;2022-09-20T06:39:29;98537.94;;;11.29;79.32
41040;BME280;48586;50.122;18.972;2022-09-20T06:42:53;98539.91;;;11.40;79.63
41040;BME280;48586;50.122;18.972;2022-09-20T06:45:57;98541.69;;;11.47;79.51
41040;BME280;48586;50.122;18.972;2022-09-20T06:48:59;98534.72;;;11.52;79.07
41040;BME280;48586;50.122;18.972;2022-09-20T06:52:03;98552.44;;;11.58;79.30
41040;BME280;48586;50.122;18.972;2022-09-20T06:55:06;98551.34;;;11.66;79.18
41040;BME280;48586;50.122;18.972;2022-09-20T06:58:09;98559.03;;;11.74;79.14
41040;BME280;48586;50.122;18.972;2022-09-20T07:01:11;98560.38;;;11.83;78.88
41040;BME280;48586;50.122;18.972;2022-09-20T07:04:14;98563.03;;;11.83;78.40
41040;BME280;48586;50.122;18.972;2022-09-20T07:07:16;98561.19;;;11.84;78.70
41040;BME280;48586;50.122;18.972;2022-09-20T07:10:18;98564.06;;;11.82;78.40
41040;BME280;48586;50.122;18.972;2022-09-20T07:13:22;98575.13;;;11.79;78.38
41040;BME280;48586;50.122;18.972;2022-09-20T07:16:25;98572.66;;;11.84;78.67
41040;BME280;48586;50.122;18.972;2022-09-20T07:19:27;98582.81;;;11.87;78.58
41040;BME280;48586;50.122;18.972;2022-09-20T07:22:29;98584.38;;;11.95;78.75
41040;BME280;48586;50.122;18.972;2022-09-20T07:25:30;98584.34;;;12.02;78.60
41040;BME280;48586;50.122;18.972;2022-09-20T07:28:34;98589.19;;;12.05;78.52
41040;BME280;48586;50.122;18.972;2022-09-20T07:31:36;98595.16;;;12.00;78.37
41040;BME280;48586;50.122;18.972;2022-09-20T07:34:37;98598.31;;;11.90;77.91
41040;BME280;48586;50.122;18.972;2022-09-20T07:37:40;98598.75;;;11.87;78.07
41040;BME280;48586;50.122;18.972;2022-09-20T07:40:42;98605.75;;;11.82;77.96
41040;BME280;48586;50.122;18.972;2022-09-20T07:43:46;98605.78;;;11.75;77.46
41040;BME280;48586;50.122;18.972;2022-09-20T07:46:48;98614.84;;;11.67;77.20
41040;BME280;48586;50.122;18.972;2022-09-20T07:49:50;98610.38;;;11.61;77.13
41040;BME280;48586;50.122;18.972;2022-09-20T07:52:54;98613.59;;;11.70;77.47
41040;BME280;48586;50.122;18.972;2022-09-20T07:56:01;98611.28;;;11.80;77.50
41040;BME280;48586;50.122;18.972;2022-09-20T07:59:05;98616.03;;;11.96;77.60
41040;BME280;48586;50.122;18.972;2022-09-20T08:02:09;98615.63;;;12.18;77.46
41040;BME280;48586;50.122;18.972;2022-09-20T08:05:14;98616.72;;;12.35;77.26
41040;BME280;48586;50.122;18.972;2022-09-20T08:08:16;98615.34;;;12.51;76.56
41040;BME280;48586;50.122;18.972;2022-09-20T08:11:20;98620.13;;;12.61;76.63
41040;BME280;48586;50.122;18.972;2022-09-20T08:14:26;98613.47;;;12.70;76.54
41040;BME280;48586;50.122;18.972;2022-09-20T08:17:28;98621.94;;;12.67;75.62
41040;BME280;48586;50.122;18.972;2022-09-20T08:20:30;98622.06;;;12.54;75.61
41040;BME280;48586;50.122;18.972;2022-09-20T08:23:33;98618.28;;;12.43;75.39
41040;BME280;48586;50.122;18.972;2022-09-20T08:26:35;98621.69;;;12.32;75.32
41040;BME280;48586;50.122;18.972;2022-09-20T08:29:38;98624.41;;;12.25;75.19
41040;BME280;48586;50.122;18.972;2022-09-20T08:32:40;98626.25;;;12.25;75.56
41040;BME280;48586;50.122;18.972;2022-09-20T08:35:42;98631.47;;;12.31;76.04
41040;BME280;48586;50.122;18.972;2022-09-20T08:38:44;98630.47;;;12.32;75.61
41040;BME280;48586;50.122;18.972;2022-09-20T08:41:51;98623.44;;;12.38;75.92
41040;BME280;48586;50.122;18.972;2022-09-20T08:44:58;98626.25;;;12.43;75.34
41040;BME280;48586;50.122;18.972;2022-09-20T08:48:03;98635.28;;;12.42;75.41
41040;BME280;48586;50.122;18.972;2022-09-20T08:51:09;98627.22;;;12.49;75.76
41040;BME280;48586;50.122;18.972;2022-09-20T08:54:12;98634.91;;;12.57;75.37
41040;BME280;48586;50.122;18.972;2022-09-20T08:57:17;98642.44;;;12.60;75.14
41040;BME280;48586;50.122;18.972;2022-09-20T09:00:24;98638.47;;;12.69;75.51
41040;BME280;48586;50.122;18.972;2022-09-20T09:03:26;98637.78;;;12.74;75.11
41040;BME280;48586;50.122;18.972;2022-09-20T09:06:28;98637.06;;;12.85;75.23
41040;BME280;48586;50.122;18.972;2022-09-20T09:09:32;98636.38;;;13.08;74.98
41040;BME280;48586;50.122;18.972;2022-09-20T09:12:38;98631.41;;;13.11;73.54
41040;BME280;48586;50.122;18.972;2022-09-20T09:15:44;98629.78;;;13.10;73.75
41040;BME280;48586;50.122;18.972;2022-09-20T09:18:50;98631.03;;;13.08;73.71
41040;BME280;48586;50.122;18.972;2022-09-20T09:21:56;98623.66;;;13.10;73.25
41040;BME280;48586;50.122;18.972;2022-09-20T09:25:23;98622.75;;;13.16;72.45
41040;BME280;48586;50.122;18.972;2022-09-20T09:28:26;98623.97;;;13.32;73.39
41040;BME280;48586;50.122;18.972;2022-09-20T09:31:32;98630.16;;;13.44;72.96
41040;BME280;48586;50.122;18.972;2022-09-20T09:34:34;98628.69;;;13.60;72.61
41040;BME280;48586;50.122;18.972;2022-09-20T09:37:38;98620.03;;;13.64;71.80
41040;BME280;48586;50.122;18.972;2022-09-20T09:40:48;98629.22;;;13.80;71.16
41040;BME280;48586;50.122;18.972;2022-09-20T09:43:58;98629.47;;;13.90;71.23
41040;BME280;48586;50.122;18.972;2022-09-20T09:47:02;98628.66;;;13.90;71.08
41040;BME280;48586;50.122;18.972;2022-09-20T09:50:04;98628.31;;;13.75;70.82
41040;BME280;48586;50.122;18.972;2022-09-20T09:53:10;98631.88;;;13.68;70.75
41040;BME280;48586;50.122;18.972;2022-09-20T09:56:22;98633.28;;;13.71;71.59
41040;BME280;48586;50.122;18.972;2022-09-20T09:59:49;98631.31;;;13.48;72.47
41040;BME280;48586;50.122;18.972;2022-09-20T10:03:11;98623.84;;;13.27;73.37
41040;BME280;48586;50.122;18.972;2022-09-20T10:06:22;98620.72;;;13.30;73.53
41040;BME280;48586;50.122;18.972;2022-09-20T10:09:39;98615.63;;;13.28;74.27
41040;BME280;48586;50.122;18.972;2022-09-20T10:12:53;98623.13;;;13.50;73.60
41040;BME280;48586;50.122;18.972;2022-09-20T10:16:04;98616.63;;;13.87;73.41
41040;BME280;48586;50.122;18.972;2022-09-20T10:19:15;98613.63;;;14.07;72.20
41040;BME280;48586;50.122;18.972;2022-09-20T10:22:31;98615.25;;;14.20;72.22
41040;BME280;48586;50.122;18.972;2022-09-20T10:25:46;98610.97;;;14.19;71.95
41040;BME280;48586;50.122;18.972;2022-09-20T10:28:57;98619.28;;;14.34;71.24
41040;BME280;48586;50.122;18.972;2022-09-20T10:32:11;98602.22;;;15.11;70.74
41040;BME280;48586;50.122;18.972;2022-09-20T10:35:29;98592.59;;;16.39;69.14
41040;BME280;48586;50.122;18.972;2022-09-20T10:38:38;98596.13;;;17.11;68.17
41040;BME280;48586;50.122;18.972;2022-09-20T10:41:51;98600.34;;;17.51;66.28
41040;BME280;48586;50.122;18.972;2022-09-20T10:45:17;98589.06;;;17.81;62.62
41040;BME280;48586;50.122;18.972;2022-09-20T10:48:20;98593.44;;;17.92;56.76
41040;BME280;48586;50.122;18.972;2022-09-20T10:51:37;98599.78;;;18.60;60.45
41040;BME280;48586;50.122;18.972;2022-09-20T10:54:57;98594.91;;;18.52;59.24
41040;BME280;48586;50.122;18.972;2022-09-20T11:01:57;98599.53;;;17.82;59.42
41040;BME280;48586;50.122;18.972;2022-09-20T11:05:19;98596.28;;;18.55;53.09
41040;BME280;48586;50.122;18.972;2022-09-20T11:08:31;98597.00;;;18.92;55.31
41040;BME280;48586;50.122;18.972;2022-09-20T11:11:38;98593.22;;;18.93;57.25
41040;BME280;48586;50.122;18.972;2022-09-20T11:14:46;98612.94;;;18.62;56.02
41040;BME280;48586;50.122;18.972;2022-09-20T11:17:57;98618.28;;;18.14;55.95
41040;BME280;48586;50.122;18.972;2022-09-20T11:21:06;98620.13;;;17.50;57.11
41040;BME280;48586;50.122;18.972;2022-09-20T11:24:18;98620.19;;;17.28;57.10
41040;BME280;48586;50.122;18.972;2022-09-20T11:27:30;98621.66;;;18.00;58.50
41040;BME280;48586;50.122;18.972;2022-09-20T11:30:39;98615.44;;;17.62;57.60
41040;BME280;48586;50.122;18.972;2022-09-20T11:33:46;98623.56;;;16.96;58.76
41040;BME280;48586;50.122;18.972;2022-09-20T11:36:53;98625.63;;;16.50;60.42
41040;BME280;48586;50.122;18.972;2022-09-20T11:40:05;98633.88;;;16.27;61.92
41040;BME280;48586;50.122;18.972;2022-09-20T11:43:13;98627.41;;;16.06;62.06
41040;BME280;48586;50.122;18.972;2022-09-20T11:46:20;98628.09;;;16.01;62.19
41040;BME280;48586;50.122;18.972;2022-09-20T11:49:27;98627.31;;;16.34;62.07
41040;BME280;48586;50.122;18.972;2022-09-20T11:52:50;98631.03;;;16.72;58.07
41040;BME280;48586;50.122;18.972;2022-09-20T11:56:02;98619.38;;;16.83;60.06
41040;BME280;48586;50.122;18.972;2022-09-20T11:59:26;98619.34;;;16.78;57.43
41040;BME280;48586;50.122;18.972;2022-09-20T12:02:33;98615.66;;;17.28;59.11
41040;BME280;48586;50.122;18.972;2022-09-20T12:05:37;98613.13;;;17.76;59.33
41040;BME280;48586;50.122;18.972;2022-09-20T12:08:40;98612.00;;;17.99;55.45
41040;BME280;48586;50.122;18.972;2022-09-20T12:11:43;98609.88;;;18.06;59.33
41040;BME280;48586;50.122;18.972;2022-09-20T12:14:53;98615.75;;;17.98;56.75
41040;BME280;48586;50.122;18.972;2022-09-20T12:22:25;98622.31;;;16.82;56.25
41040;BME280;48586;50.122;18.972;2022-09-20T12:25:37;98615.00;;;16.33;57.39
41040;BME280;48586;50.122;18.972;2022-09-20T12:28:42;98613.22;;;16.22;58.37
41040;BME280;48586;50.122;18.972;2022-09-20T12:31:46;98615.16;;;16.27;57.90
41040;BME280;48586;50.122;18.972;2022-09-20T12:34:48;98606.66;;;16.30;57.11
41040;BME280;48586;50.122;18.972;2022-09-20T12:37:52;98608.72;;;16.44;57.54
41040;BME280;48586;50.122;18.972;2022-09-20T12:40:58;98605.00;;;16.67;56.29
41040;BME280;48586;50.122;18.972;2022-09-20T12:44:05;98602.53;;;16.83;56.57
41040;BME280;48586;50.122;18.972;2022-09-20T12:47:22;98602.44;;;17.00;56.96
41040;BME280;48586;50.122;18.972;2022-09-20T12:50:26;98601.44;;;17.06;56.67
41040;BME280;48586;50.122;18.972;2022-09-20T12:53:58;98596.13;;;17.11;55.58
41040;BME280;48586;50.122;18.972;2022-09-20T12:57:16;98598.97;;;17.21;52.95
41040;BME280;48586;50.122;18.972;2022-09-20T13:00:29;98600.41;;;17.29;55.18
41040;BME280;48586;50.122;18.972;2022-09-20T13:03:37;98601.38;;;17.23;55.25
41040;BME280;48586;50.122;18.972;2022-09-20T13:06:40;98597.09;;;17.22;54.34
41040;BME280;48586;50.122;18.972;2022-09-20T13:09:42;98601.81;;;16.92;52.83
41040;BME280;48586;50.122;18.972;2022-09-20T13:12:45;98597.53;;;16.69;52.57
41040;BME280;48586;50.122;18.972;2022-09-20T13:15:52;98606.25;;;16.60;53.59
41040;BME280;48586;50.122;18.972;2022-09-20T13:18:59;98603.75;;;16.53;52.89
41040;BME280;48586;50.122;18.972;2022-09-20T13:22:09;98609.84;;;16.49;53.24
41040;BME280;48586;50.122;18.972;2022-09-20T13:25:14;98603.16;;;16.68;54.27
41040;BME280;48586;50.122;18.972;2022-09-20T13:28:27;98603.22;;;16.95;53.35
41040;BME280;48586;50.122;18.972;2022-09-20T13:31:33;98599.81;;;17.05;53.98
41040;BME280;48586;50.122;18.972;2022-09-20T13:34:35;98607.22;;;16.98;54.04
41040;BME280;48586;50.122;18.972;2022-09-20T13:37:37;98596.91;;;16.84;54.70
41040;BME280;48586;50.122;18.972;2022-09-20T13:40:44;98611.03;;;16.58;53.61
41040;BME280;48586;50.122;18.972;2022-09-20T13:43:48;98604.22;;;16.50;54.37
41040;BME280;48586;50.122;18.972;2022-09-20T13:46:53;98606.81;;;16.62;54.55
41040;BME280;48586;50.122;18.972;2022-09-20T13:50:01;98609.69;;;16.77;53.69
41040;BME280;48586;50.122;18.972;2022-09-20T13:53:14;98602.34;;;16.89;53.32
41040;BME280;48586;50.122;18.972;2022-09-20T13:56:19;98609.91;;;16.98;53.57
41040;BME280;48586;50.122;18.972;2022-09-20T13:59:23;98599.59;;;16.84;52.39
41040;BME280;48586;50.122;18.972;2022-09-20T14:02:30;98610.22;;;16.79;53.01
41040;BME280;48586;50.122;18.972;2022-09-20T14:05:33;98611.41;;;16.88;53.45
41040;BME280;48586;50.122;18.972;2022-09-20T14:08:39;98607.97;;;16.93;51.41
41040;BME280;48586;50.122;18.972;2022-09-20T14:11:43;98605.88;;;16.95;52.87
41040;BME280;48586;50.122;18.972;2022-09-20T14:14:45;98609.09;;;16.97;52.82
41040;BME280;48586;50.122;18.972;2022-09-20T14:17:49;98607.69;;;17.11;53.43
41040;BME280;48586;50.122;18.972;2022-09-20T14:20:54;98612.91;;;17.23;52.25
41040;BME280;48586;50.122;18.972;2022-09-20T14:24:00;98608.97;;;17.31;52.28
41040;BME280;48586;50.122;18.972;2022-09-20T14:27:16;98613.84;;;17.34;51.97
41040;BME280;48586;50.122;18.972;2022-09-20T14:30:29;98610.72;;;17.42;50.10
41040;BME280;48586;50.122;18.972;2022-09-20T14:33:34;98614.41;;;17.41;51.75
41040;BME280;48586;50.122;18.972;2022-09-20T14:36:41;98611.00;;;17.45;51.59
41040;BME280;48586;50.122;18.972;2022-09-20T14:39:46;98612.75;;;17.35;51.26
41040;BME280;48586;50.122;18.972;2022-09-20T14:42:52;98613.25;;;17.32;49.79
41040;BME280;48586;50.122;18.972;2022-09-20T14:45:56;98617.00;;;17.09;50.50
41040;BME280;48586;50.122;18.972;2022-09-20T14:49:28;98619.28;;;16.95;48.58
41040;BME280;48586;50.122;18.972;2022-09-20T14:52:37;98624.94;;;16.77;49.98
41040;BME280;48586;50.122;18.972;2022-09-20T14:55:58;98624.31;;;16.69;50.02
41040;BME280;48586;50.122;18.972;2022-09-20T14:59:17;98623.34;;;16.59;50.92
41040;BME280;48586;50.122;18.972;2022-09-20T15:02:20;98627.09;;;16.58;52.08
41040;BME280;48586;50.122;18.972;2022-09-20T15:05:25;98625.16;;;16.53;50.18
41040;BME280;48586;50.122;18.972;2022-09-20T15:08:29;98625.97;;;16.54;51.64
41040;BME280;48586;50.122;18.972;2022-09-20T15:11:31;98630.03;;;16.56;51.41
41040;BME280;48586;50.122;18.972;2022-09-20T15:14:37;98629.91;;;16.68;52.04
41040;BME280;48586;50.122;18.972;2022-09-20T15:17:41;98628.38;;;16.72;51.31
41040;BME280;48586;50.122;18.972;2022-09-20T15:20:46;98632.50;;;16.63;51.12
41040;BME280;48586;50.122;18.972;2022-09-20T15:23:48;98638.22;;;16.50;51.45
41040;BME280;48586;50.122;18.972;2022-09-20T15:26:50;98641.13;;;16.48;51.62
41040;BME280;48586;50.122;18.972;2022-09-20T15:29:52;98646.22;;;16.50;52.02
41040;BME280;48586;50.122;18.972;2022-09-20T15:32:54;98648.84;;;16.44;51.65
41040;BME280;48586;50.122;18.972;2022-09-20T15:35:58;98649.19;;;16.31;51.48
41040;BME280;48586;50.122;18.972;2022-09-20T15:39:00;98647.84;;;16.12;51.78
41040;BME280;48586;50.122;18.972;2022-09-20T15:42:02;98657.56;;;15.89;52.47
41040;BME280;48586;50.122;18.972;2022-09-20T15:45:06;98659.81;;;15.64;52.72
41040;BME280;48586;50.122;18.972;2022-09-20T15:48:09;98666.31;;;15.39;53.65
41040;BME280;48586;50.122;18.972;2022-09-20T15:51:13;98663.84;;;15.21;53.98
41040;BME280;48586;50.122;18.972;2022-09-20T15:54:15;98675.16;;;15.00;54.84
41040;BME280;48586;50.122;18.972;2022-09-20T15:57:18;98676.31;;;14.80;55.28
41040;BME280;48586;50.122;18.972;2022-09-20T16:00:20;98682.34;;;14.64;55.53
41040;BME280;48586;50.122;18.972;2022-09-20T16:03:27;98687.13;;;14.50;55.96
41040;BME280;48586;50.122;18.972;2022-09-20T16:06:31;98687.81;;;14.34;56.75
41040;BME280;48586;50.122;18.972;2022-09-20T16:09:34;98693.59;;;14.19;57.12
41040;BME280;48586;50.122;18.972;2022-09-20T16:12:39;98693.94;;;14.11;57.37
41040;BME280;48586;50.122;18.972;2022-09-20T16:15:42;98693.69;;;14.01;58.16
41040;BME280;48586;50.122;18.972;2022-09-20T16:18:44;98692.84;;;13.88;58.05
41040;BME280;48586;50.122;18.972;2022-09-20T16:22:07;98694.41;;;13.78;58.70
41040;BME280;48586;50.122;18.972;2022-09-20T16:25:09;98702.41;;;13.66;58.94
41040;BME280;48586;50.122;18.972;2022-09-20T16:28:12;98703.69;;;13.57;59.65
41040;BME280;48586;50.122;18.972;2022-09-20T16:31:31;98706.09;;;13.46;60.31
41040;BME280;48586;50.122;18.972;2022-09-20T16:34:35;98714.25;;;13.33;60.84
41040;BME280;48586;50.122;18.972;2022-09-20T16:37:48;98714.34;;;13.27;61.65
41040;BME280;48586;50.122;18.972;2022-09-20T16:41:02;98729.56;;;13.19;61.50
41040;BME280;48586;50.122;18.972;2022-09-20T16:44:06;98725.97;;;13.14;61.59
41040;BME280;48586;50.122;18.972;2022-09-20T16:47:10;98725.97;;;13.14;61.98
41040;BME280;48586;50.122;18.972;2022-09-20T16:50:18;98729.06;;;13.11;62.21
41040;BME280;48586;50.122;18.972;2022-09-20T16:53:21;98736.44;;;13.09;62.19